createdAt,value
2023-04-27T00:00:26.839Z,1013.33
2023-04-27T00:01:27.158Z,1013.34
2023-04-27T00:02:27.590Z,1013.36
2023-04-27T00:03:27.954Z,1013.35
2023-04-27T00:04:28.153Z,1013.29
2023-04-27T00:05:28.358Z,1013.32
2023-04-27T00:06:28.539Z,1013.28
2023-04-27T00:07:28.861Z,1013.23
2023-04-27T00:08:29.176Z,1013.26
2023-04-27T00:09:29.482Z,1013.23
2023-04-27T00:10:29.779Z,1013.24
2023-04-27T00:11:30.111Z,1013.26
2023-04-27T00:12:30.403Z,1013.27
2023-04-27T00:13:30.708Z,1013.26
2023-04-27T00:14:30.992Z,1013.30
2023-04-27T00:15:31.332Z,1013.25
2023-04-27T00:16:31.670Z,1013.26
2023-04-27T00:17:31.940Z,1013.28
2023-04-27T00:18:32.233Z,1013.25
2023-04-27T00:19:32.531Z,1013.26
2023-04-27T00:20:32.814Z,1013.29
2023-04-27T00:21:33.132Z,1013.28
2023-04-27T00:22:33.449Z,1013.32
2023-04-27T00:23:33.752Z,1013.28
2023-04-27T00:24:34.044Z,1013.26
2023-04-27T00:25:34.361Z,1013.29
2023-04-27T00:26:34.598Z,1013.29
2023-04-27T00:27:34.944Z,1013.32
2023-04-27T00:28:35.227Z,1013.31
2023-04-27T00:29:35.567Z,1013.30
2023-04-27T00:30:35.860Z,1013.34
2023-04-27T00:31:36.366Z,1013.26
2023-04-27T00:32:36.495Z,1013.33
2023-04-27T00:33:36.785Z,1013.31
2023-04-27T00:34:37.058Z,1013.34
2023-04-27T00:35:37.347Z,1013.34
2023-04-27T00:36:37.657Z,1013.30
2023-04-27T00:37:37.966Z,1013.28
2023-04-27T00:38:38.305Z,1013.29
2023-04-27T00:39:38.590Z,1013.35
2023-04-27T00:40:38.882Z,1013.32
2023-04-27T00:41:39.195Z,1013.34
2023-04-27T00:42:39.505Z,1013.36
2023-04-27T00:43:39.802Z,1013.30
2023-04-27T00:44:40.160Z,1013.34
2023-04-27T00:45:40.427Z,1013.35
2023-04-27T00:46:40.696Z,1013.34
2023-04-27T00:47:41.030Z,1013.33
2023-04-27T00:48:41.315Z,1013.33
2023-04-27T00:49:41.650Z,1013.42
2023-04-27T00:50:41.909Z,1013.37
2023-04-27T00:51:42.230Z,1013.45
2023-04-27T00:52:42.517Z,1013.46
2023-04-27T00:53:42.836Z,1013.45
2023-04-27T00:54:43.148Z,1013.41
2023-04-27T00:55:43.420Z,1013.40
2023-04-27T00:56:43.746Z,1013.43
2023-04-27T00:57:44.054Z,1013.45
2023-04-27T00:58:44.389Z,1013.48
2023-04-27T00:59:44.641Z,1013.45
2023-04-27T01:00:44.935Z,1013.48
2023-04-27T01:01:45.375Z,1013.46
2023-04-27T01:02:45.791Z,1013.43
2023-04-27T01:03:45.961Z,1013.42
2023-04-27T01:04:46.128Z,1013.49
2023-04-27T01:05:46.421Z,1013.52
2023-04-27T01:06:46.755Z,1013.48
2023-04-27T01:07:47.040Z,1013.49
2023-04-27T01:08:47.317Z,1013.53
2023-04-27T01:09:47.613Z,1013.51
2023-04-27T01:10:47.907Z,1013.48
2023-04-27T01:11:48.226Z,1013.59
2023-04-27T01:12:48.537Z,1013.57
2023-04-27T01:13:48.839Z,1013.63
2023-04-27T01:14:49.167Z,1013.56
2023-04-27T01:15:49.449Z,1013.57
2023-04-27T01:16:49.819Z,1013.56
2023-04-27T01:17:50.070Z,1013.53
2023-04-27T01:18:50.343Z,1013.53
2023-04-27T01:19:50.611Z,1013.63
2023-04-27T01:20:50.927Z,1013.60
2023-04-27T01:21:51.222Z,1013.57
2023-04-27T01:22:51.552Z,1013.56
2023-04-27T01:23:51.819Z,1013.61
2023-04-27T01:24:52.138Z,1013.63
2023-04-27T01:25:52.478Z,1013.57
2023-04-27T01:26:52.769Z,1013.61
2023-04-27T01:27:53.070Z,1013.59
2023-04-27T01:28:53.383Z,1013.60
2023-04-27T01:29:53.685Z,1013.62
2023-04-27T01:30:53.994Z,1013.61
2023-04-27T01:31:54.317Z,1013.63
2023-04-27T01:32:54.656Z,1013.69
2023-04-27T01:33:54.920Z,1013.60
2023-04-27T01:34:55.213Z,1013.60
2023-04-27T01:35:55.528Z,1013.61
2023-04-27T01:36:55.815Z,1013.63
2023-04-27T01:37:56.133Z,1013.65
2023-04-27T01:38:56.425Z,1013.66
2023-04-27T01:39:56.781Z,1013.69
2023-04-27T01:40:57.099Z,1013.68
2023-04-27T01:41:58.630Z,1013.65
2023-04-27T01:42:57.718Z,1013.64
2023-04-27T01:43:57.966Z,1013.70
2023-04-27T01:44:58.170Z,1013.69
2023-04-27T01:45:58.543Z,1013.70
2023-04-27T01:46:58.768Z,1013.72
2023-04-27T01:47:59.043Z,1013.70
2023-04-27T01:48:59.242Z,1013.72
2023-04-27T01:49:59.586Z,1013.69
2023-04-27T01:50:59.911Z,1013.80
2023-04-27T01:52:00.263Z,1013.72
2023-04-27T01:53:00.577Z,1013.77
2023-04-27T01:54:00.826Z,1013.79
2023-04-27T01:55:01.082Z,1013.80
2023-04-27T01:56:01.282Z,1013.83
2023-04-27T01:57:01.505Z,1013.81
2023-04-27T01:58:01.843Z,1013.90
2023-04-27T01:59:02.217Z,1013.83
2023-04-27T02:00:02.428Z,1013.83
2023-04-27T02:01:02.778Z,1013.86
2023-04-27T02:02:03.211Z,1013.87
2023-04-27T02:03:03.576Z,1013.90
2023-04-27T02:04:03.846Z,1013.92
2023-04-27T02:05:03.958Z,1013.94
2023-04-27T02:06:04.214Z,1013.88
2023-04-27T02:07:04.462Z,1013.84
2023-04-27T02:08:04.685Z,1013.90
2023-04-27T02:09:05.039Z,1013.80
2023-04-27T02:10:05.392Z,1013.92
2023-04-27T02:11:05.661Z,1013.87
2023-04-27T02:12:05.882Z,1013.85
2023-04-27T02:13:06.202Z,1013.89
2023-04-27T02:14:06.559Z,1013.90
2023-04-27T02:15:06.766Z,1013.89
2023-04-27T02:16:07.167Z,1013.92
2023-04-27T02:17:07.362Z,1013.96
2023-04-27T02:18:07.752Z,1013.92
2023-04-27T02:19:07.960Z,1013.93
2023-04-27T02:20:08.290Z,1013.91
2023-04-27T02:21:08.641Z,1013.98
2023-04-27T02:22:09.025Z,1013.93
2023-04-27T02:23:09.236Z,1013.91
2023-04-27T02:24:09.609Z,1013.91
2023-04-27T02:25:09.794Z,1013.94
2023-04-27T02:26:10.126Z,1013.99
2023-04-27T02:27:10.475Z,1013.94
2023-04-27T02:28:10.709Z,1014.01
2023-04-27T02:29:11.159Z,1014.00
2023-04-27T02:30:11.329Z,1014.00
2023-04-27T02:31:11.726Z,1014.02
2023-04-27T02:32:11.911Z,1013.94
2023-04-27T02:33:12.182Z,1014.00
2023-04-27T02:34:12.359Z,1013.98
2023-04-27T02:35:12.698Z,1014.03
2023-04-27T02:36:13.142Z,1014.04
2023-04-27T02:37:13.379Z,1013.96
2023-04-27T02:38:13.651Z,1014.02
2023-04-27T02:39:14.102Z,1014.02
2023-04-27T02:40:14.302Z,1014.06
2023-04-27T02:41:14.594Z,1014.06
2023-04-27T02:42:14.878Z,1014.06
2023-04-27T02:43:15.140Z,1014.03
2023-04-27T02:44:15.471Z,1014.04
2023-04-27T02:45:15.669Z,1014.07
2023-04-27T02:46:16.096Z,1014.06
2023-04-27T02:47:16.243Z,1013.99
2023-04-27T02:48:16.623Z,1014.06
2023-04-27T02:49:16.859Z,1014.01
2023-04-27T02:50:17.089Z,1014.05
2023-04-27T02:51:17.324Z,1014.04
2023-04-27T02:52:17.596Z,1014.01
2023-04-27T02:53:17.819Z,1013.98
2023-04-27T02:54:18.036Z,1013.99
2023-04-27T02:55:18.279Z,1014.06
2023-04-27T02:56:18.555Z,1014.05
2023-04-27T02:57:18.850Z,1013.97
2023-04-27T02:58:19.063Z,1013.97
2023-04-27T02:59:19.325Z,1013.98
2023-04-27T03:00:19.591Z,1014.06
2023-04-27T03:01:19.904Z,1014.07
2023-04-27T03:02:20.159Z,1014.03
2023-04-27T03:03:20.619Z,1014.03
2023-04-27T03:04:20.905Z,1014.05
2023-04-27T03:05:21.036Z,1014.11
2023-04-27T03:06:21.362Z,1014.06
2023-04-27T03:07:21.692Z,1014.09
2023-04-27T03:08:22.054Z,1014.08
2023-04-27T03:09:22.284Z,1014.08
2023-04-27T03:10:22.506Z,1014.09
2023-04-27T03:11:22.835Z,1014.04
2023-04-27T03:12:23.191Z,1014.00
2023-04-27T03:13:23.525Z,1014.08
2023-04-27T03:14:23.874Z,1014.07
2023-04-27T03:15:24.084Z,1014.02
2023-04-27T03:16:24.427Z,1014.10
2023-04-27T03:17:24.651Z,1014.11
2023-04-27T03:18:24.915Z,1014.10
2023-04-27T03:19:25.133Z,1014.04
2023-04-27T03:20:25.494Z,1014.11
2023-04-27T03:21:25.697Z,1014.12
2023-04-27T03:22:26.079Z,1014.11
2023-04-27T03:23:26.389Z,1014.13
2023-04-27T03:24:26.675Z,1014.17
2023-04-27T03:25:26.919Z,1014.15
2023-04-27T03:26:27.168Z,1014.20
2023-04-27T03:27:27.429Z,1014.19
2023-04-27T03:28:27.676Z,1014.24
2023-04-27T03:29:27.952Z,1014.24
2023-04-27T03:30:28.252Z,1014.21
2023-04-27T03:31:28.649Z,1014.22
2023-04-27T03:32:28.868Z,1014.24
2023-04-27T03:33:29.102Z,1014.26
2023-04-27T03:34:29.323Z,1014.30
2023-04-27T03:35:29.558Z,1014.26
2023-04-27T03:36:29.822Z,1014.26
2023-04-27T03:37:30.087Z,1014.32
2023-04-27T03:38:30.319Z,1014.31
2023-04-27T03:39:30.598Z,1014.36
2023-04-27T03:40:30.892Z,1014.32
2023-04-27T03:41:31.173Z,1014.29
2023-04-27T03:42:31.498Z,1014.35
2023-04-27T03:43:31.789Z,1014.30
2023-04-27T03:44:32.158Z,1014.28
2023-04-27T03:45:32.309Z,1014.36
2023-04-27T03:46:32.708Z,1014.32
2023-04-27T03:47:32.912Z,1014.36
2023-04-27T03:48:33.214Z,1014.39
2023-04-27T03:49:33.475Z,1014.37
2023-04-27T03:50:33.723Z,1014.39
2023-04-27T03:51:33.979Z,1014.40
2023-04-27T03:52:34.238Z,1014.45
2023-04-27T03:53:34.475Z,1014.41
2023-04-27T03:54:34.730Z,1014.46
2023-04-27T03:55:34.947Z,1014.43
2023-04-27T03:56:35.203Z,1014.42
2023-04-27T03:57:35.451Z,1014.48
2023-04-27T03:58:35.725Z,1014.50
2023-04-27T03:59:35.993Z,1014.53
2023-04-27T04:00:36.261Z,1014.51
2023-04-27T04:01:36.507Z,1014.53
2023-04-27T04:02:36.884Z,1014.55
2023-04-27T04:03:37.162Z,1014.53
2023-04-27T04:04:37.445Z,1014.59
2023-04-27T04:05:37.595Z,1014.56
2023-04-27T04:06:37.838Z,1014.58
2023-04-27T04:07:38.101Z,1014.63
2023-04-27T04:08:38.423Z,1014.63
2023-04-27T04:09:38.752Z,1014.59
2023-04-27T04:10:38.994Z,1014.59
2023-04-27T04:11:39.253Z,1014.64
2023-04-27T04:12:39.568Z,1014.58
2023-04-27T04:13:39.848Z,1014.63
2023-04-27T04:14:40.156Z,1014.65
2023-04-27T04:15:40.571Z,1014.68
2023-04-27T04:16:40.665Z,1014.62
2023-04-27T04:17:40.983Z,1014.73
2023-04-27T04:18:41.165Z,1014.68
2023-04-27T04:19:41.458Z,1014.64
2023-04-27T04:20:41.751Z,1014.69
2023-04-27T04:21:42.028Z,1014.65
2023-04-27T04:22:42.283Z,1014.70
2023-04-27T04:23:42.576Z,1014.71
2023-04-27T04:24:42.838Z,1014.73
2023-04-27T04:25:43.095Z,1014.78
2023-04-27T04:26:43.353Z,1014.75
2023-04-27T04:27:43.583Z,1014.78
2023-04-27T04:28:43.876Z,1014.74
2023-04-27T04:29:44.146Z,1014.75
2023-04-27T04:30:44.416Z,1014.76
2023-04-27T04:31:44.749Z,1014.73
2023-04-27T04:32:45.135Z,1014.83
2023-04-27T04:33:45.366Z,1014.78
2023-04-27T04:34:45.492Z,1014.73
2023-04-27T04:35:45.762Z,1014.81
2023-04-27T04:36:46.093Z,1014.80
2023-04-27T04:37:46.360Z,1014.80
2023-04-27T04:38:46.845Z,1014.79
2023-04-27T04:39:47.080Z,1014.84
2023-04-27T04:40:47.208Z,1014.87
2023-04-27T04:41:47.522Z,1014.82
2023-04-27T04:42:47.833Z,1014.88
2023-04-27T04:43:48.119Z,1014.83
2023-04-27T04:44:48.414Z,1014.83
2023-04-27T04:45:48.743Z,1014.88
2023-04-27T04:46:48.977Z,1014.86
2023-04-27T04:47:49.297Z,1014.89
2023-04-27T04:48:49.499Z,1014.91
2023-04-27T04:49:49.854Z,1014.88
2023-04-27T04:50:50.126Z,1014.85
2023-04-27T04:51:50.450Z,1014.86
2023-04-27T04:52:50.802Z,1014.85
2023-04-27T04:53:51.013Z,1014.90
2023-04-27T04:54:51.365Z,1014.91
2023-04-27T04:55:51.605Z,1014.89
2023-04-27T04:56:51.870Z,1014.91
2023-04-27T04:57:52.179Z,1014.95
2023-04-27T04:58:52.524Z,1014.95
2023-04-27T04:59:52.673Z,1014.97
2023-04-27T05:00:52.979Z,1014.99
2023-04-27T05:01:53.298Z,1014.94
2023-04-27T05:02:53.707Z,1014.93
2023-04-27T05:03:54.075Z,1014.98
2023-04-27T05:04:54.197Z,1014.95
2023-04-27T05:05:54.330Z,1014.94
2023-04-27T05:06:54.569Z,1014.97
2023-04-27T05:07:54.879Z,1014.91
2023-04-27T05:08:55.209Z,1014.96
2023-04-27T05:09:55.586Z,1014.92
2023-04-27T05:10:55.859Z,1014.92
2023-04-27T05:11:56.134Z,1014.97
2023-04-27T05:12:56.469Z,1014.88
2023-04-27T05:13:56.830Z,1014.84
2023-04-27T05:14:57.029Z,1014.89
2023-04-27T05:15:57.386Z,1014.86
2023-04-27T05:16:57.649Z,1014.89
2023-04-27T05:17:57.983Z,1014.79
2023-04-27T05:18:58.183Z,1014.84
2023-04-27T05:19:58.495Z,1014.78
2023-04-27T05:20:58.746Z,1014.85
2023-04-27T05:21:59.132Z,1014.79
2023-04-27T05:22:59.276Z,1014.74
2023-04-27T05:23:59.486Z,1014.81
2023-04-27T05:24:59.771Z,1014.72
2023-04-27T05:26:00.140Z,1014.68
2023-04-27T05:27:02.290Z,1014.78
2023-04-27T05:28:00.739Z,1014.73
2023-04-27T05:29:00.904Z,1014.81
2023-04-27T05:30:01.279Z,1014.75
2023-04-27T05:31:01.487Z,1014.75
2023-04-27T05:32:01.920Z,1014.72
2023-04-27T05:33:02.060Z,1014.71
2023-04-27T05:34:02.412Z,1014.73
2023-04-27T05:35:02.642Z,1014.66
2023-04-27T05:36:03.018Z,1014.69
2023-04-27T05:37:03.156Z,1014.72
2023-04-27T05:38:03.399Z,1014.69
2023-04-27T05:39:03.715Z,1014.69
2023-04-27T05:40:03.949Z,1014.68
2023-04-27T05:41:04.248Z,1014.68
2023-04-27T05:42:04.477Z,1014.63
2023-04-27T05:43:04.757Z,1014.64
2023-04-27T05:44:05.018Z,1014.70
2023-04-27T05:45:05.254Z,1014.63
2023-04-27T05:46:05.568Z,1014.64
2023-04-27T05:47:05.810Z,1014.56
2023-04-27T05:48:06.184Z,1014.55
2023-04-27T05:49:06.450Z,1014.66
2023-04-27T05:50:06.675Z,1014.68
2023-04-27T05:51:06.932Z,1014.68
2023-04-27T05:52:07.219Z,1014.69
2023-04-27T05:53:07.493Z,1014.74
2023-04-27T05:54:07.764Z,1014.68
2023-04-27T05:55:08.041Z,1014.68
2023-04-27T05:56:08.331Z,1014.70
2023-04-27T05:57:08.617Z,1014.72
2023-04-27T05:58:09.376Z,1014.68
2023-04-27T05:59:09.192Z,1014.62
2023-04-27T06:00:09.511Z,1014.67
2023-04-27T06:01:10.277Z,1014.65
2023-04-27T06:02:10.110Z,1014.63
2023-04-27T06:03:10.508Z,1014.64
2023-04-27T06:04:10.686Z,1014.63
2023-04-27T06:05:10.919Z,1014.64
2023-04-27T06:06:11.217Z,1014.68
2023-04-27T06:07:11.486Z,1014.69
2023-04-27T06:08:11.814Z,1014.68
2023-04-27T06:09:12.275Z,1014.69
2023-04-27T06:10:12.357Z,1014.68
2023-04-27T06:11:12.688Z,1014.69
2023-04-27T06:12:12.858Z,1014.69
2023-04-27T06:13:13.123Z,1014.72
2023-04-27T06:14:13.425Z,1014.64
2023-04-27T06:15:13.688Z,1014.65
2023-04-27T06:16:14.072Z,1014.63
2023-04-27T06:17:14.205Z,1014.67
2023-04-27T06:18:14.514Z,1014.67
2023-04-27T06:19:15.053Z,1014.67
2023-04-27T06:20:15.073Z,1014.75
2023-04-27T06:21:15.393Z,1014.70
2023-04-27T06:22:15.670Z,1014.68
2023-04-27T06:23:15.945Z,1014.66
2023-04-27T06:24:16.211Z,1014.70
2023-04-27T06:25:16.548Z,1014.75
2023-04-27T06:26:16.847Z,1014.69
2023-04-27T06:27:17.072Z,1014.65
2023-04-27T06:28:18.098Z,1014.68
2023-04-27T06:29:18.394Z,1014.68
2023-04-27T06:30:17.987Z,1014.63
2023-04-27T06:31:18.338Z,1014.63
2023-04-27T06:32:18.576Z,1014.63
2023-04-27T06:33:18.816Z,1014.65
2023-04-27T06:34:19.144Z,1014.59
2023-04-27T06:35:19.366Z,1014.67
2023-04-27T06:36:19.657Z,1014.67
2023-04-27T06:37:19.912Z,1014.60
2023-04-27T06:38:20.241Z,1014.73
2023-04-27T06:39:20.495Z,1014.64
2023-04-27T06:40:20.818Z,1014.71
2023-04-27T06:41:21.040Z,1014.69
2023-04-27T06:42:21.376Z,1014.71
2023-04-27T06:43:21.637Z,1014.75
2023-04-27T06:44:21.904Z,1014.77
2023-04-27T06:45:22.168Z,1014.79
2023-04-27T06:46:22.433Z,1014.82
2023-04-27T06:47:22.639Z,1014.76
2023-04-27T06:48:23.031Z,1014.82
2023-04-27T06:49:23.265Z,1014.85
2023-04-27T06:50:23.468Z,1014.87
2023-04-27T06:51:23.836Z,1014.85
2023-04-27T06:52:24.082Z,1014.82
2023-04-27T06:53:24.308Z,1014.86
2023-04-27T06:54:24.669Z,1014.87
2023-04-27T06:55:24.854Z,1014.84
2023-04-27T06:56:25.119Z,1014.89
2023-04-27T06:57:25.353Z,1014.86
2023-04-27T06:58:25.594Z,1014.87
2023-04-27T06:59:25.828Z,1014.91
2023-04-27T07:00:26.063Z,1014.87
2023-04-27T07:01:26.425Z,1014.90
2023-04-27T07:02:26.677Z,1014.93
2023-04-27T07:03:27.054Z,1014.94
2023-04-27T07:04:27.353Z,1014.94
2023-04-27T07:05:27.489Z,1014.95
2023-04-27T07:06:27.844Z,1014.94
2023-04-27T07:07:28.067Z,1014.92
2023-04-27T07:08:28.411Z,1014.93
2023-04-27T07:09:29.157Z,1014.91
2023-04-27T07:10:29.089Z,1014.89
2023-04-27T07:11:29.446Z,1014.96
2023-04-27T07:12:29.774Z,1014.99
2023-04-27T07:13:30.157Z,1014.96
2023-04-27T07:14:30.512Z,1014.92
2023-04-27T07:15:30.713Z,1014.95
2023-04-27T07:16:31.188Z,1014.98
2023-04-27T07:17:31.499Z,1014.99
2023-04-27T07:18:31.714Z,1014.99
2023-04-27T07:19:32.058Z,1014.95
2023-04-27T07:20:32.270Z,1015.05
2023-04-27T07:21:32.612Z,1014.99
2023-04-27T07:22:32.961Z,1015.01
2023-04-27T07:23:33.267Z,1015.03
2023-04-27T07:24:33.609Z,1014.99
2023-04-27T07:25:34.037Z,1014.97
2023-04-27T07:26:34.243Z,1014.95
2023-04-27T07:27:34.557Z,1014.98
2023-04-27T07:28:34.907Z,1015.09
2023-04-27T07:29:35.189Z,1015.07
2023-04-27T07:30:35.433Z,1015.02
2023-04-27T07:31:35.788Z,1015.01
2023-04-27T07:32:36.118Z,1015.06
2023-04-27T07:33:36.462Z,1014.97
2023-04-27T07:34:49.152Z,1015.03
2023-04-27T07:35:38.030Z,1015.07
2023-04-27T07:36:37.346Z,1015.09
2023-04-27T07:37:37.571Z,1015.06
2023-04-27T07:38:37.942Z,1014.98
2023-04-27T07:39:38.285Z,1015.11
2023-04-27T07:40:38.508Z,1015.02
2023-04-27T07:41:38.739Z,1015.16
2023-04-27T07:42:39.190Z,1015.11
2023-04-27T07:43:39.449Z,1015.16
2023-04-27T07:44:39.698Z,1015.15
2023-04-27T07:45:39.977Z,1015.08
2023-04-27T07:46:40.248Z,1015.10
2023-04-27T07:47:40.789Z,1015.14
2023-04-27T07:48:40.804Z,1015.10
2023-04-27T07:49:41.036Z,1015.05
2023-04-27T07:50:41.279Z,1015.13
2023-04-27T07:51:41.511Z,1015.16
2023-04-27T07:52:41.744Z,1015.17
2023-04-27T07:53:42.033Z,1015.10
2023-04-27T07:54:42.343Z,1015.14
2023-04-27T07:55:42.587Z,1015.16
2023-04-27T07:56:42.853Z,1015.13
2023-04-27T07:57:43.114Z,1015.14
2023-04-27T07:58:43.421Z,1015.16
2023-04-27T07:59:43.666Z,1015.19
2023-04-27T08:00:43.922Z,1015.22
2023-04-27T08:01:44.196Z,1015.14
2023-04-27T08:02:44.685Z,1015.17
2023-04-27T08:03:45.032Z,1015.18
2023-04-27T08:04:45.278Z,1015.15
2023-04-27T08:05:45.591Z,1015.12
2023-04-27T08:06:46.368Z,1015.16
2023-04-27T08:07:45.948Z,1015.14
2023-04-27T08:08:46.125Z,1015.20
2023-04-27T08:09:46.368Z,1015.20
2023-04-27T08:10:46.588Z,1015.21
2023-04-27T08:11:46.819Z,1015.18
2023-04-27T08:12:47.092Z,1015.18
2023-04-27T08:13:47.405Z,1015.15
2023-04-27T08:14:47.626Z,1015.23
2023-04-27T08:15:48.019Z,1015.27
2023-04-27T08:16:48.251Z,1015.22
2023-04-27T08:17:48.562Z,1015.16
2023-04-27T08:18:48.844Z,1015.19
2023-04-27T08:19:49.081Z,1015.18
2023-04-27T08:20:49.337Z,1015.19
2023-04-27T08:21:49.622Z,1015.27
2023-04-27T08:22:49.877Z,1015.14
2023-04-27T08:23:50.137Z,1015.17
2023-04-27T08:24:50.357Z,1015.17
2023-04-27T08:25:50.595Z,1015.25
2023-04-27T08:26:50.829Z,1015.20
2023-04-27T08:27:51.142Z,1015.20
2023-04-27T08:28:51.469Z,1015.21
2023-04-27T08:29:51.669Z,1015.22
2023-04-27T08:30:51.938Z,1015.17
2023-04-27T08:31:53.760Z,1015.23
2023-04-27T08:32:52.457Z,1015.25
2023-04-27T08:33:52.650Z,1015.24
2023-04-27T08:34:52.912Z,1015.22
2023-04-27T08:35:53.119Z,1015.15
2023-04-27T08:36:53.474Z,1015.23
2023-04-27T08:37:53.754Z,1015.26
2023-04-27T08:38:53.974Z,1015.27
2023-04-27T08:39:54.296Z,1015.29
2023-04-27T08:40:54.553Z,1015.35
2023-04-27T08:41:54.795Z,1015.33
2023-04-27T08:42:55.145Z,1015.29
2023-04-27T08:43:56.158Z,1015.23
2023-04-27T08:44:55.739Z,1015.26
2023-04-27T08:45:55.977Z,1015.23
2023-04-27T08:46:56.228Z,1015.28
2023-04-27T08:47:56.464Z,1015.25
2023-04-27T08:48:56.674Z,1015.14
2023-04-27T08:49:57.019Z,1015.14
2023-04-27T08:50:57.276Z,1015.18
2023-04-27T08:51:57.517Z,1015.21
2023-04-27T08:52:57.738Z,1015.22
2023-04-27T08:53:57.963Z,1015.22
2023-04-27T08:54:58.214Z,1015.25
2023-04-27T08:55:58.533Z,1015.26
2023-04-27T08:56:58.740Z,1015.25
2023-04-27T08:57:58.988Z,1015.30
2023-04-27T08:58:59.234Z,1015.32
2023-04-27T08:59:59.492Z,1015.23
2023-04-27T09:00:59.735Z,1015.22
2023-04-27T09:02:00.019Z,1015.22
2023-04-27T09:03:00.468Z,1015.15
2023-04-27T09:04:00.735Z,1015.15
2023-04-27T09:05:01.017Z,1015.23
2023-04-27T09:06:05.124Z,1015.19
2023-04-27T09:07:01.330Z,1015.21
2023-04-27T09:08:01.579Z,1015.16
2023-04-27T09:09:01.842Z,1015.18
2023-04-27T09:10:10.542Z,1015.16
2023-04-27T09:11:02.384Z,1015.14
2023-04-27T09:12:02.603Z,1015.12
2023-04-27T09:13:02.878Z,1015.09
2023-04-27T09:14:03.182Z,1015.12
2023-04-27T09:15:03.467Z,1015.10
2023-04-27T09:16:04.607Z,1015.16
2023-04-27T09:17:04.008Z,1015.09
2023-04-27T09:18:04.375Z,1015.13
2023-04-27T09:19:04.469Z,1015.15
2023-04-27T09:20:05.534Z,1015.16
2023-04-27T09:21:04.998Z,1015.25
2023-04-27T09:22:05.265Z,1015.28
2023-04-27T09:23:05.490Z,1015.24
2023-04-27T09:54:51.909Z,1015.00
2023-04-27T09:55:52.161Z,1014.98
2023-04-27T09:56:52.382Z,1014.96
2023-04-27T09:57:53.136Z,1014.89
2023-04-27T09:58:53.068Z,1014.92
2023-04-27T09:59:53.351Z,1014.88
2023-04-27T10:00:53.721Z,1014.91
2023-04-27T10:01:53.847Z,1014.81
2023-04-27T10:03:09.194Z,1014.82
2023-04-27T10:03:54.605Z,1014.79
2023-04-27T10:04:54.670Z,1014.82
2023-04-27T10:05:54.956Z,1014.82
2023-04-27T10:06:57.212Z,1014.85
2023-04-27T10:07:55.516Z,1014.79
2023-04-27T10:08:56.064Z,1014.81
2023-04-27T10:09:57.264Z,1014.82
2023-04-27T10:10:57.322Z,1014.82
2023-04-27T10:12:26.288Z,1014.84
2023-04-27T10:13:01.085Z,1014.88
2023-04-27T10:13:58.618Z,1014.86
2023-04-27T10:14:57.822Z,1014.87
2023-04-27T10:16:10.606Z,1014.90
2023-04-27T10:16:59.952Z,1014.86
2023-04-27T10:17:59.290Z,1014.88
2023-04-27T10:19:09.673Z,1014.80
2023-04-27T10:19:59.984Z,1014.88
2023-04-27T10:20:59.305Z,1014.82
2023-04-27T10:21:59.996Z,1014.88
2023-04-27T10:24:26.080Z,1014.86
2023-04-27T10:28:18.827Z,1014.88
2023-04-27T10:30:39.792Z,1014.88
2023-04-27T10:31:38.969Z,1014.77
2023-04-27T10:32:38.852Z,1014.75
2023-04-27T10:33:39.152Z,1014.73
2023-04-27T10:34:39.517Z,1014.69
2023-04-27T10:35:39.774Z,1014.73
2023-04-27T10:36:39.962Z,1014.70
2023-04-27T10:37:40.280Z,1014.72
2023-04-27T10:38:40.605Z,1014.69
2023-04-27T10:39:48.731Z,1014.74
2023-04-27T10:40:42.122Z,1014.65
2023-04-27T10:41:41.722Z,1014.76
2023-04-27T10:42:41.898Z,1014.67
2023-04-27T10:43:43.323Z,1014.74
2023-04-27T10:44:42.407Z,1014.70
2023-04-27T10:45:42.788Z,1014.78
2023-04-27T10:46:43.282Z,1014.72
2023-04-27T10:47:43.478Z,1014.76
2023-04-27T10:48:43.884Z,1014.75
2023-04-27T10:49:44.266Z,1014.73
2023-04-27T10:50:44.565Z,1014.81
2023-04-27T10:51:45.745Z,1014.77
2023-04-27T10:52:44.819Z,1014.74
2023-04-27T10:53:45.351Z,1014.74
2023-04-27T10:54:46.324Z,1014.71
2023-04-27T10:55:46.436Z,1014.74
2023-04-27T10:56:47.041Z,1014.74
2023-04-27T10:57:47.691Z,1014.77
2023-04-27T10:58:49.419Z,1014.73
2023-04-27T10:59:46.859Z,1014.73
2023-04-27T11:00:48.194Z,1014.71
2023-04-27T11:01:48.490Z,1014.60
2023-04-27T11:02:48.271Z,1014.72
2023-04-27T11:03:48.214Z,1014.71
2023-04-27T11:04:48.337Z,1014.72
2023-04-27T11:05:48.651Z,1014.78
2023-04-27T11:06:49.769Z,1014.81
2023-04-27T11:07:52.313Z,1014.78
2023-04-27T11:08:49.603Z,1014.84
2023-04-27T11:09:49.742Z,1014.78
2023-04-27T11:10:51.026Z,1014.84
2023-04-27T11:11:50.686Z,1014.90
2023-04-27T11:12:50.644Z,1014.89
2023-04-27T11:13:50.899Z,1014.76
2023-04-27T11:14:51.075Z,1014.79
2023-04-27T11:15:51.460Z,1014.75
2023-04-27T11:16:51.806Z,1014.79
2023-04-27T11:17:52.017Z,1014.83
2023-04-27T11:20:08.464Z,1014.80
2023-04-27T11:21:08.318Z,1014.79
2023-04-27T11:22:08.300Z,1014.80
2023-04-27T11:23:08.545Z,1014.82
2023-04-27T11:24:08.850Z,1014.79
2023-04-27T11:25:09.055Z,1014.76
2023-04-27T11:26:09.318Z,1014.70
2023-04-27T11:27:09.606Z,1014.78
2023-04-27T11:28:09.847Z,1014.82
2023-04-27T11:29:10.127Z,1014.86
2023-04-27T11:30:10.343Z,1014.86
2023-04-27T11:31:10.620Z,1014.86
2023-04-27T11:32:10.910Z,1014.89
2023-04-27T11:33:11.206Z,1014.89
2023-04-27T11:34:11.433Z,1014.89
2023-04-27T11:35:11.720Z,1014.89
2023-04-27T11:36:11.976Z,1014.92
2023-04-27T11:37:18.320Z,1014.90
2023-04-27T11:38:13.490Z,1014.96
2023-04-27T11:39:13.034Z,1014.90
2023-04-27T11:40:13.082Z,1014.94
2023-04-27T11:41:13.354Z,1014.92
2023-04-27T11:42:13.617Z,1014.96
2023-04-27T11:43:13.864Z,1014.91
2023-04-27T11:44:14.114Z,1015.00
2023-04-27T11:45:14.385Z,1014.99
2023-04-27T11:46:14.712Z,1015.01
2023-04-27T11:47:16.315Z,1014.98
2023-04-27T11:48:15.273Z,1014.95
2023-04-27T11:49:15.881Z,1014.90
2023-04-27T11:50:15.913Z,1014.90
2023-04-27T11:51:16.149Z,1014.90
2023-04-27T11:52:16.399Z,1014.93
2023-04-27T11:53:18.656Z,1014.87
2023-04-27T11:54:16.926Z,1014.90
2023-04-27T11:55:17.229Z,1014.93
2023-04-27T11:56:17.477Z,1014.94
2023-04-27T11:57:17.758Z,1014.95
2023-04-27T11:58:17.998Z,1014.92
2023-04-27T11:59:18.314Z,1014.96
2023-04-27T12:00:18.550Z,1014.93
2023-04-27T12:01:30.903Z,1014.93
2023-04-27T12:02:20.116Z,1014.96
2023-04-27T12:03:19.544Z,1014.89
2023-04-27T12:04:20.164Z,1014.94
2023-04-27T12:05:20.149Z,1014.91
2023-04-27T12:07:20.533Z,1014.95
2023-04-27T12:08:20.793Z,1014.97
2023-04-27T12:09:21.050Z,1015.01
2023-04-27T12:10:21.294Z,1015.05
2023-04-27T12:11:21.543Z,1014.95
2023-04-27T12:12:21.805Z,1014.98
2023-04-27T12:13:22.073Z,1015.02
2023-04-27T12:14:22.331Z,1015.04
2023-04-27T12:15:22.636Z,1014.98
2023-04-27T12:16:22.988Z,1015.03
2023-04-27T12:17:23.242Z,1015.00
2023-04-27T12:18:23.482Z,1015.05
2023-04-27T12:19:23.747Z,1015.07
2023-04-27T12:20:23.956Z,1015.10
2023-04-27T12:21:24.208Z,1015.12
2023-04-27T12:22:24.504Z,1015.20
2023-04-27T12:23:24.770Z,1015.20
2023-04-27T12:24:25.064Z,1015.06
2023-04-27T12:25:25.294Z,1015.08
2023-04-27T12:26:25.584Z,1015.10
2023-04-27T12:27:25.862Z,1015.05
2023-04-27T12:28:26.101Z,1015.11
2023-04-27T12:29:26.374Z,1015.19
2023-04-27T12:30:26.629Z,1015.13
2023-04-27T12:31:27.915Z,1015.06
2023-04-27T12:32:27.140Z,1015.17
2023-04-27T12:33:27.407Z,1015.15
2023-04-27T12:34:27.692Z,1015.16
2023-04-27T12:35:27.958Z,1015.10
2023-04-27T12:36:28.213Z,1015.11
2023-04-27T12:37:28.508Z,1015.10
2023-04-27T12:38:28.731Z,1015.08
2023-04-27T12:39:29.028Z,1015.09
2023-04-27T12:40:29.285Z,1015.20
2023-04-27T12:41:29.554Z,1015.17
2023-04-27T12:42:29.837Z,1015.24
2023-04-27T12:43:30.081Z,1015.22
2023-04-27T12:44:30.365Z,1015.21
2023-04-27T12:45:30.608Z,1015.22
2023-04-27T12:46:30.940Z,1015.25
2023-04-27T12:47:53.974Z,1015.15